createdAt,value
2023-01-19T00:02:02.418Z,86.12
2023-01-19T00:04:34.110Z,86.19
2023-01-19T00:07:05.829Z,86.07
2023-01-19T00:09:38.384Z,86.07
2023-01-19T00:12:10.468Z,86.02
2023-01-19T00:14:42.198Z,86.06
2023-01-19T00:17:13.932Z,86.26
2023-01-19T00:19:45.653Z,86.09
2023-01-19T00:22:17.552Z,86.47
2023-01-19T00:24:50.395Z,86.26
2023-01-19T00:27:22.095Z,86.40
2023-01-19T00:29:53.819Z,86.36
2023-01-19T00:32:25.511Z,86.44
2023-01-19T00:34:57.233Z,86.52
2023-01-19T00:37:28.982Z,86.42
2023-01-19T00:40:00.741Z,86.45
2023-01-19T00:42:41.476Z,86.59
2023-01-19T00:45:15.729Z,86.60
2023-01-19T00:47:47.976Z,86.59
2023-01-19T00:50:19.882Z,86.58
2023-01-19T00:52:53.122Z,86.48
2023-01-19T00:55:24.873Z,86.36
2023-01-19T00:57:57.092Z,86.29
2023-01-19T01:00:29.108Z,86.23
2023-01-19T01:03:01.565Z,86.34
2023-01-19T01:05:33.555Z,86.22
2023-01-19T01:08:05.565Z,86.26
2023-01-19T01:10:37.271Z,86.26
2023-01-19T01:13:23.704Z,86.20
2023-01-19T01:15:58.208Z,86.42
2023-01-19T01:18:30.953Z,86.32
2023-01-19T01:21:07.377Z,86.32
2023-01-19T01:23:39.136Z,86.41
2023-01-19T01:26:10.905Z,86.55
2023-01-19T01:28:42.616Z,86.62
2023-01-19T01:31:14.407Z,86.53
2023-01-19T01:33:46.156Z,86.62
2023-01-19T01:36:18.967Z,86.61
2023-01-19T01:38:50.999Z,86.58
2023-01-19T01:41:25.468Z,86.65
2023-01-19T01:44:01.628Z,86.62
2023-01-19T01:46:34.074Z,86.51
2023-01-19T01:49:09.235Z,86.55
2023-01-19T01:51:47.022Z,86.59
2023-01-19T01:54:22.602Z,86.62
2023-01-19T01:56:58.299Z,86.53
2023-01-19T01:59:34.861Z,86.61
2023-01-19T02:02:26.494Z,86.64
2023-01-19T02:05:04.167Z,86.60
2023-01-19T02:08:03.112Z,86.39
2023-01-19T02:10:52.787Z,86.69
2023-01-19T02:13:25.569Z,86.60
2023-01-19T02:16:00.839Z,86.65
2023-01-19T02:18:33.769Z,86.45
2023-01-19T02:21:12.174Z,86.52
2023-01-19T02:23:47.002Z,86.65
2023-01-19T02:26:23.168Z,86.65
2023-01-19T02:28:59.445Z,86.60
2023-01-19T02:31:33.651Z,86.76
2023-01-19T02:34:07.091Z,86.66
2023-01-19T02:36:39.699Z,86.87
2023-01-19T02:39:12.216Z,86.74
2023-01-19T02:41:49.722Z,86.80
2023-01-19T02:44:23.633Z,86.67
2023-01-19T02:46:57.817Z,86.54
2023-01-19T02:49:31.771Z,86.68
2023-01-19T02:52:04.428Z,86.80
2023-01-19T02:54:47.776Z,86.57
2023-01-19T02:57:43.660Z,86.61
2023-01-19T03:00:26.458Z,86.57
2023-01-19T03:03:15.621Z,86.60
2023-01-19T03:06:04.870Z,86.59
2023-01-19T03:08:49.506Z,86.61
2023-01-19T03:11:24.772Z,86.50
2023-01-19T03:14:01.745Z,86.66
2023-01-19T03:16:40.713Z,86.66
2023-01-19T03:19:19.119Z,86.87
2023-01-19T03:21:56.120Z,86.49
2023-01-19T03:24:30.735Z,86.52
2023-01-19T03:27:06.668Z,86.65
2023-01-19T03:29:42.606Z,86.61
2023-01-19T03:32:18.401Z,86.58
2023-01-19T03:34:52.521Z,86.62
2023-01-19T03:37:26.736Z,86.63
2023-01-19T03:39:58.774Z,86.48
2023-01-19T03:42:31.200Z,86.48
2023-01-19T03:45:03.912Z,86.45
2023-01-19T03:47:36.530Z,86.41
2023-01-19T03:50:14.692Z,86.29
2023-01-19T03:52:46.392Z,86.29
2023-01-19T03:55:18.126Z,86.43
2023-01-19T03:57:49.816Z,86.45
2023-01-19T04:00:22.130Z,86.35
2023-01-19T04:02:53.940Z,86.34
2023-01-19T04:05:26.278Z,86.09
2023-01-19T04:07:58.247Z,86.32
2023-01-19T04:10:29.978Z,86.36
2023-01-19T04:13:02.860Z,86.46
2023-01-19T04:15:35.007Z,86.39
2023-01-19T04:18:07.245Z,86.34
2023-01-19T04:20:39.816Z,86.42
2023-01-19T04:23:11.597Z,86.54
2023-01-19T04:25:43.262Z,86.42
2023-01-19T04:28:15.649Z,86.26
2023-01-19T04:30:50.772Z,86.32
2023-01-19T04:33:23.364Z,86.45
2023-01-19T04:35:56.127Z,86.41
2023-01-19T04:38:28.331Z,86.33
2023-01-19T04:41:00.052Z,86.30
2023-01-19T04:43:31.834Z,86.61
2023-01-19T04:46:03.651Z,86.47
2023-01-19T04:48:35.745Z,86.55
2023-01-19T04:51:08.508Z,86.55
2023-01-19T04:53:40.229Z,86.55
2023-01-19T04:56:12.424Z,86.56
2023-01-19T04:58:44.277Z,86.53
2023-01-19T05:01:16.004Z,86.71
2023-01-19T05:03:47.703Z,86.41
2023-01-19T05:06:19.544Z,86.50
2023-01-19T05:08:51.463Z,86.43
2023-01-19T05:11:23.142Z,86.44
2023-01-19T05:13:54.954Z,86.50
2023-01-19T05:16:26.732Z,86.60
2023-01-19T05:18:58.616Z,86.66
2023-01-19T05:21:30.921Z,86.64
2023-01-19T05:24:02.870Z,86.59
2023-01-19T05:26:34.583Z,86.65
2023-01-19T05:29:06.231Z,86.57
2023-01-19T05:31:38.316Z,86.57
2023-01-19T05:34:12.026Z,86.44
2023-01-19T05:36:43.956Z,86.64
2023-01-19T05:39:15.991Z,86.34
2023-01-19T05:41:47.790Z,86.61
2023-01-19T05:44:19.531Z,86.61
2023-01-19T05:46:51.357Z,86.69
2023-01-19T05:49:23.081Z,86.51
2023-01-19T05:51:54.798Z,86.59
2023-01-19T05:54:26.679Z,86.52
2023-01-19T05:56:58.452Z,86.61
2023-01-19T05:59:30.343Z,86.43
2023-01-19T06:02:02.174Z,86.42
2023-01-19T06:04:34.125Z,86.37
2023-01-19T06:07:06.457Z,86.48
2023-01-19T06:09:38.230Z,86.61
2023-01-19T06:12:10.364Z,86.37
2023-01-19T06:14:42.160Z,86.46
2023-01-19T06:17:13.864Z,86.37
2023-01-19T06:19:45.577Z,86.58
2023-01-19T06:22:17.448Z,86.48
2023-01-19T06:24:49.134Z,86.34
2023-01-19T06:27:20.849Z,86.38
2023-01-19T06:29:52.530Z,86.41
2023-01-19T06:32:24.213Z,86.38
2023-01-19T06:34:55.977Z,86.30
2023-01-19T06:37:28.620Z,86.18
2023-01-19T06:40:00.636Z,86.36
2023-01-19T06:42:32.569Z,86.38
2023-01-19T06:45:04.869Z,86.45
2023-01-19T06:47:36.678Z,86.43
2023-01-19T06:50:10.806Z,86.40
2023-01-19T06:52:42.817Z,86.41
2023-01-19T06:55:16.285Z,86.07
2023-01-19T06:57:48.068Z,86.26
2023-01-19T07:00:21.991Z,86.20
2023-01-19T07:02:53.876Z,86.21
2023-01-19T07:05:25.661Z,86.34
2023-01-19T07:07:58.481Z,86.49
2023-01-19T07:11:25.464Z,86.31
2023-01-19T07:13:21.962Z,86.31
2023-01-19T07:15:53.902Z,86.63
2023-01-19T07:18:25.711Z,86.46
2023-01-19T07:20:59.739Z,86.40
2023-01-19T07:23:31.778Z,86.51
2023-01-19T07:26:03.973Z,86.52
2023-01-19T07:28:36.996Z,86.55
2023-01-19T07:31:09.753Z,86.51
2023-01-19T07:33:41.560Z,86.62
2023-01-19T07:36:14.643Z,86.29
2023-01-19T07:38:46.593Z,86.59
2023-01-19T07:41:18.423Z,86.50
2023-01-19T07:43:52.719Z,86.42
2023-01-19T07:46:24.474Z,86.47
2023-01-19T07:48:56.348Z,86.43
2023-01-19T07:51:28.045Z,86.44
2023-01-19T07:53:59.762Z,86.39
2023-01-19T07:56:33.879Z,86.32
2023-01-19T07:59:07.386Z,86.46
2023-01-19T08:01:39.241Z,86.27
2023-01-19T08:04:11.560Z,86.40
2023-01-19T08:06:46.244Z,86.37
2023-01-19T08:09:18.132Z,86.47
2023-01-19T08:11:49.909Z,86.39
2023-01-19T08:14:21.716Z,86.50
2023-01-19T08:16:53.430Z,86.58
2023-01-19T08:19:25.219Z,86.56
2023-01-19T08:21:58.860Z,86.45
2023-01-19T08:24:31.566Z,86.43
2023-01-19T08:27:04.180Z,86.48
2023-01-19T08:29:35.866Z,86.54
2023-01-19T08:32:08.252Z,86.38
2023-01-19T08:34:40.048Z,86.25
2023-01-19T08:37:11.827Z,86.06
2023-01-19T08:39:43.535Z,86.01
2023-01-19T08:42:15.372Z,85.99
2023-01-19T08:44:57.711Z,86.00
2023-01-19T08:47:30.233Z,85.97
2023-01-19T08:50:02.015Z,85.79
2023-01-19T08:52:33.715Z,85.85
2023-01-19T08:55:06.216Z,85.59
2023-01-19T08:57:37.952Z,85.78
2023-01-19T09:00:11.660Z,85.53
2023-01-19T09:02:43.563Z,85.59
2023-01-19T09:05:15.507Z,85.45
2023-01-19T09:07:48.058Z,85.51
2023-01-19T09:10:20.657Z,85.36
2023-01-19T09:12:52.547Z,85.36
2023-01-19T09:15:24.347Z,85.30
2023-01-19T09:17:56.076Z,85.23
2023-01-19T09:20:28.570Z,85.13
2023-01-19T09:23:00.685Z,85.16
2023-01-19T09:25:32.780Z,85.21
2023-01-19T09:28:05.421Z,85.10
2023-01-19T09:30:37.730Z,85.17
2023-01-19T09:33:11.679Z,85.15
2023-01-19T09:35:45.234Z,85.15
2023-01-19T09:38:16.783Z,85.03
2023-01-19T09:40:52.471Z,84.91
2023-01-19T09:43:42.113Z,84.80
2023-01-19T09:46:18.567Z,85.01
2023-01-19T09:48:53.579Z,84.82
2023-01-19T09:51:27.449Z,84.86
2023-01-19T09:54:07.610Z,84.78
2023-01-19T09:56:39.799Z,84.87
2023-01-19T09:59:23.242Z,84.90
2023-01-19T10:02:21.748Z,84.73
2023-01-19T10:05:01.573Z,84.71
2023-01-19T10:07:53.269Z,84.70
2023-01-19T10:10:28.217Z,84.73
2023-01-19T10:13:15.157Z,84.75
2023-01-19T10:15:57.249Z,84.68
2023-01-19T10:18:35.775Z,84.78
2023-01-19T10:21:13.868Z,84.67
2023-01-19T10:23:49.216Z,84.70
2023-01-19T10:26:24.240Z,84.50
2023-01-19T10:29:00.463Z,84.79
2023-01-19T10:31:33.856Z,84.47
2023-01-19T10:34:04.575Z,84.58
2023-01-19T10:36:40.370Z,84.62
2023-01-19T10:39:16.464Z,84.68
2023-01-19T10:41:52.401Z,84.55
2023-01-19T10:44:28.993Z,84.56
2023-01-19T10:47:02.308Z,84.60
2023-01-19T10:49:42.759Z,84.44
2023-01-19T10:52:26.992Z,84.29
2023-01-19T10:55:00.166Z,84.41
2023-01-19T10:57:36.591Z,84.63
2023-01-19T11:00:29.340Z,84.37
2023-01-19T11:03:01.579Z,84.48
2023-01-19T11:05:35.192Z,84.38
2023-01-19T11:08:25.216Z,84.33
2023-01-19T11:11:02.266Z,84.30
2023-01-19T11:13:34.812Z,84.33
2023-01-19T11:16:16.609Z,84.15
2023-01-19T11:18:52.569Z,84.12
2023-01-19T11:21:27.744Z,84.19
2023-01-19T11:24:01.660Z,84.10
2023-01-19T11:26:40.793Z,84.12
2023-01-19T11:29:20.191Z,84.17
2023-01-19T11:31:53.209Z,84.22
2023-01-19T11:34:34.100Z,84.02
2023-01-19T11:37:22.633Z,83.97
2023-01-19T11:39:57.259Z,84.10
2023-01-19T11:42:33.410Z,84.00
2023-01-19T11:45:15.113Z,84.03
2023-01-19T11:47:49.635Z,84.09
2023-01-19T11:50:29.417Z,84.13
2023-01-19T11:53:07.335Z,83.97
2023-01-19T11:55:44.919Z,84.01
2023-01-19T11:58:18.967Z,84.15
2023-01-19T12:00:54.516Z,84.06
2023-01-19T12:03:31.184Z,84.27
2023-01-19T12:06:05.578Z,84.12
2023-01-19T12:08:40.951Z,83.91
2023-01-19T12:11:21.176Z,83.96
2023-01-19T12:13:54.916Z,83.88
2023-01-19T12:16:30.533Z,83.96
2023-01-19T12:19:06.078Z,84.03
2023-01-19T12:21:38.730Z,84.13
2023-01-19T12:24:17.856Z,84.03
2023-01-19T12:26:55.361Z,84.14
2023-01-19T12:29:31.137Z,84.00
2023-01-19T12:32:20.212Z,84.19
2023-01-19T12:34:52.754Z,84.01
2023-01-19T12:37:36.937Z,84.07
2023-01-19T12:40:25.963Z,83.84
2023-01-19T12:43:02.407Z,83.92
2023-01-19T12:45:35.892Z,83.98
2023-01-19T12:48:24.660Z,84.09
2023-01-19T12:50:56.439Z,83.92
2023-01-19T12:53:30.495Z,84.04
2023-01-19T12:56:08.678Z,83.82
2023-01-19T12:58:40.414Z,83.96
2023-01-19T13:01:21.696Z,83.84
2023-01-19T13:04:06.748Z,83.88
2023-01-19T13:07:10.543Z,83.92
2023-01-19T13:09:43.188Z,83.98
2023-01-19T13:12:26.076Z,83.84
2023-01-19T13:15:34.823Z,83.92
2023-01-19T13:18:09.178Z,84.00
2023-01-19T13:20:50.892Z,84.01
2023-01-19T13:23:26.089Z,84.08
2023-01-19T13:26:04.510Z,83.89
2023-01-19T13:28:41.759Z,83.98
2023-01-19T13:31:15.094Z,84.11
2023-01-19T13:33:53.122Z,84.26
2023-01-19T13:36:31.528Z,84.10
2023-01-19T13:39:05.843Z,84.10
2023-01-19T13:41:41.280Z,84.07
2023-01-19T13:44:19.574Z,84.17
2023-01-19T13:46:52.481Z,84.07
2023-01-19T13:49:30.629Z,84.11
2023-01-19T13:52:13.597Z,84.26
2023-01-19T13:54:53.505Z,84.02
2023-01-19T13:57:28.019Z,84.00
2023-01-19T14:00:17.684Z,84.20
2023-01-19T14:03:01.203Z,84.19
2023-01-19T14:05:35.897Z,84.09
2023-01-19T14:08:17.814Z,84.21
2023-01-19T14:11:02.028Z,84.32
2023-01-19T14:13:37.383Z,84.14
2023-01-19T14:16:18.479Z,84.28
2023-01-19T14:19:02.321Z,84.39
2023-01-19T14:21:39.975Z,84.15
2023-01-19T14:24:17.722Z,84.42
2023-01-19T14:26:52.722Z,84.61
2023-01-19T14:29:31.823Z,84.27
2023-01-19T14:32:19.353Z,84.40
2023-01-19T14:34:53.794Z,84.26
2023-01-19T14:37:28.157Z,84.59
2023-01-19T14:40:05.633Z,84.79
2023-01-19T14:42:39.764Z,84.58
2023-01-19T14:45:22.217Z,84.69
2023-01-19T14:47:59.718Z,84.63
2023-01-19T14:50:35.119Z,84.57
2023-01-19T14:53:15.266Z,84.65
2023-01-19T14:55:49.996Z,84.77
2023-01-19T14:58:23.638Z,84.85
2023-01-19T15:00:56.396Z,84.70
2023-01-19T15:03:43.588Z,84.70
2023-01-19T15:06:19.752Z,84.83
2023-01-19T15:08:53.245Z,84.82
2023-01-19T15:11:25.639Z,84.86
2023-01-19T15:13:57.334Z,84.91
2023-01-19T15:16:32.843Z,85.03
2023-01-19T15:19:05.033Z,84.90
2023-01-19T15:21:37.545Z,84.94
2023-01-19T15:24:09.640Z,84.89
2023-01-19T15:26:43.839Z,84.98
2023-01-19T15:29:24.582Z,84.98
2023-01-19T15:31:56.384Z,84.89
2023-01-19T15:34:28.092Z,84.83
2023-01-19T15:37:00.071Z,84.99
2023-01-19T15:39:32.175Z,84.95
2023-01-19T15:42:04.093Z,84.98
2023-01-19T15:44:35.778Z,85.13
2023-01-19T15:47:07.633Z,85.06
2023-01-19T15:49:39.319Z,84.99
2023-01-19T15:52:10.985Z,84.94
2023-01-19T15:54:42.705Z,85.16
2023-01-19T15:57:14.414Z,85.26
2023-01-19T16:03:42.379Z,85.35
2023-01-19T16:06:16.185Z,85.27
2023-01-19T16:08:48.032Z,85.23
2023-01-19T16:11:19.743Z,85.30
2023-01-19T16:13:51.461Z,85.17
2023-01-19T16:16:25.172Z,85.38
2023-01-19T16:18:57.509Z,85.25
2023-01-19T16:21:29.745Z,85.41
2023-01-19T16:24:01.470Z,85.24
2023-01-19T16:26:34.817Z,85.19
2023-01-19T16:29:09.807Z,85.24
2023-01-19T16:31:43.236Z,85.24
2023-01-19T16:34:13.578Z,85.36
2023-01-19T16:36:45.814Z,85.17
2023-01-19T16:39:18.230Z,85.39
2023-01-19T16:41:49.924Z,85.34
2023-01-19T16:44:21.588Z,85.40
2023-01-19T16:46:53.371Z,85.32
2023-01-19T16:49:28.502Z,85.37
2023-01-19T16:52:00.402Z,85.32
2023-01-19T16:54:32.846Z,85.37
2023-01-19T16:57:04.582Z,85.08
2023-01-19T16:59:36.359Z,85.19
2023-01-19T17:02:08.517Z,85.25
2023-01-19T17:04:40.274Z,85.47
2023-01-19T17:07:11.972Z,85.36
2023-01-19T17:09:43.819Z,85.39
2023-01-19T17:12:15.749Z,85.34
2023-01-19T17:14:48.411Z,85.51
2023-01-19T17:17:20.250Z,85.47
2023-01-19T17:19:51.946Z,85.45
2023-01-19T17:22:23.808Z,85.26
2023-01-19T17:24:55.478Z,85.48
2023-01-19T17:27:27.341Z,85.46
2023-01-19T17:29:59.199Z,85.24
2023-01-19T17:32:32.093Z,85.30
2023-01-19T17:35:03.856Z,85.38
2023-01-19T17:37:35.607Z,85.25
2023-01-19T17:40:09.859Z,85.14
2023-01-19T17:42:43.148Z,85.23
2023-01-19T17:45:15.160Z,85.32
2023-01-19T17:47:48.745Z,85.19
2023-01-19T17:50:20.678Z,85.48
2023-01-19T17:52:52.721Z,85.41
2023-01-19T17:55:24.442Z,85.51
2023-01-19T17:57:56.301Z,85.49
2023-01-19T18:00:28.901Z,85.46
2023-01-19T18:03:00.892Z,85.50
2023-01-19T18:05:32.649Z,85.46
2023-01-19T18:08:04.570Z,85.36
2023-01-19T18:10:36.641Z,85.41
2023-01-19T18:13:08.327Z,85.32
2023-01-19T18:15:40.380Z,85.40
2023-01-19T18:18:12.069Z,85.24
2023-01-19T18:20:44.531Z,85.53
2023-01-19T18:23:16.416Z,85.54
2023-01-19T18:25:48.570Z,85.38
2023-01-19T18:28:20.301Z,85.56
2023-01-19T18:30:52.072Z,85.53
2023-01-19T18:33:24.456Z,85.45
2023-01-19T18:35:56.198Z,85.24
2023-01-19T18:38:28.159Z,85.44
2023-01-19T18:41:07.537Z,85.42
2023-01-19T18:43:39.939Z,85.51
2023-01-19T18:46:12.433Z,85.39
2023-01-19T18:48:44.835Z,85.45
2023-01-19T18:51:17.864Z,85.51
2023-01-19T18:53:49.749Z,85.46
2023-01-19T18:56:21.696Z,85.56
2023-01-19T18:58:53.968Z,85.56
2023-01-19T19:01:30.293Z,85.63
2023-01-19T19:04:04.422Z,85.53
2023-01-19T19:06:36.529Z,85.52
2023-01-19T19:09:08.430Z,85.63
2023-01-19T19:11:40.292Z,85.66
2023-01-19T19:14:12.471Z,85.52
2023-01-19T19:16:44.298Z,85.47
2023-01-19T19:19:16.460Z,85.57
2023-01-19T19:21:48.956Z,85.57
2023-01-19T19:24:20.739Z,85.64
2023-01-19T19:26:52.679Z,85.53
2023-01-19T19:29:24.468Z,85.61
2023-01-19T19:31:56.767Z,85.64
2023-01-19T19:34:29.268Z,85.69
2023-01-19T19:37:01.529Z,85.68
2023-01-19T19:39:33.869Z,85.80
2023-01-19T19:42:05.647Z,85.77
2023-01-19T19:44:37.462Z,85.73
2023-01-19T19:47:09.335Z,85.72
2023-01-19T19:49:41.135Z,85.96
2023-01-19T19:52:12.991Z,86.12
2023-01-19T19:54:45.585Z,86.06
2023-01-19T19:57:17.558Z,86.22
2023-01-19T19:59:49.785Z,86.14
2023-01-19T20:02:22.082Z,86.15
2023-01-19T20:04:54.072Z,86.12
2023-01-19T20:07:26.294Z,86.21
2023-01-19T20:09:58.364Z,86.16
2023-01-19T20:12:30.202Z,86.10
2023-01-19T20:15:02.278Z,86.27
2023-01-19T20:17:34.163Z,86.46
2023-01-19T20:20:07.093Z,86.42
2023-01-19T20:22:38.792Z,86.29
2023-01-19T20:25:11.672Z,86.47
2023-01-19T20:27:44.987Z,86.58
2023-01-19T20:30:17.632Z,86.70
2023-01-19T20:32:51.288Z,86.42
2023-01-19T20:35:23.407Z,86.49
2023-01-19T20:37:55.206Z,86.58
2023-01-19T20:40:27.336Z,86.50
2023-01-19T20:42:59.070Z,86.47
2023-01-19T20:45:31.089Z,86.56
2023-01-19T20:48:02.982Z,86.55
2023-01-19T20:50:34.718Z,86.44
2023-01-19T20:53:06.436Z,86.55
2023-01-19T20:55:38.350Z,86.67
2023-01-19T20:58:10.374Z,86.53
2023-01-19T21:00:42.525Z,86.60
2023-01-19T21:03:14.478Z,86.63
2023-01-19T21:05:49.453Z,86.42
2023-01-19T21:08:21.173Z,86.66
2023-01-19T21:10:56.275Z,86.72
2023-01-19T21:13:28.192Z,86.53
2023-01-19T21:16:00.827Z,86.70
2023-01-19T21:18:32.603Z,86.77
2023-01-19T21:21:04.702Z,86.70
2023-01-19T21:23:36.664Z,86.72
2023-01-19T21:26:08.640Z,86.65
2023-01-19T21:28:40.519Z,86.47
2023-01-19T21:31:14.737Z,86.83
2023-01-19T21:33:46.493Z,86.91
2023-01-19T21:36:18.222Z,86.47
2023-01-19T21:38:51.437Z,86.62
2023-01-19T21:41:22.120Z,86.56
2023-01-19T21:43:53.809Z,86.67
2023-01-19T21:46:29.271Z,86.76
2023-01-19T21:49:02.673Z,87.01
2023-01-19T21:51:37.367Z,86.99
2023-01-19T21:54:09.535Z,86.54
2023-01-19T21:56:43.224Z,86.67
2023-01-19T21:59:18.508Z,86.66
2023-01-19T22:01:51.498Z,86.62
2023-01-19T22:04:23.744Z,86.92
2023-01-19T22:06:55.486Z,86.73
2023-01-19T22:09:27.210Z,86.69
2023-01-19T22:11:59.804Z,86.72
2023-01-19T22:14:32.048Z,86.93
2023-01-19T22:17:04.798Z,86.97
2023-01-19T22:19:36.509Z,86.81
2023-01-19T22:22:08.252Z,86.51
2023-01-19T22:24:40.065Z,86.68
2023-01-19T22:27:11.806Z,86.67
2023-01-19T22:29:43.511Z,86.50
2023-01-19T22:32:15.321Z,86.63
2023-01-19T22:34:48.057Z,86.74
2023-01-19T22:37:19.714Z,86.58
2023-01-19T22:39:51.453Z,86.58
2023-01-19T22:42:23.113Z,86.48
2023-01-19T22:44:54.832Z,86.51
2023-01-19T22:47:26.687Z,86.68
2023-01-19T22:49:58.400Z,86.43
2023-01-19T22:52:30.126Z,86.57
2023-01-19T22:55:02.010Z,86.61
2023-01-19T22:57:36.749Z,86.42
2023-01-19T23:00:11.040Z,86.51
2023-01-19T23:02:42.726Z,86.49
2023-01-19T23:05:14.883Z,86.34
2023-01-19T23:07:46.980Z,86.36
2023-01-19T23:10:19.325Z,86.33
2023-01-19T23:12:51.036Z,86.46
2023-01-19T23:15:22.726Z,86.25
2023-01-19T23:17:54.658Z,86.28
2023-01-19T23:20:26.754Z,86.36
2023-01-19T23:22:58.442Z,86.26
2023-01-19T23:25:31.991Z,86.26
2023-01-19T23:28:02.121Z,86.21
2023-01-19T23:30:33.835Z,86.24
2023-01-19T23:33:05.884Z,86.32
2023-01-19T23:35:38.081Z,86.24
2023-01-19T23:38:09.755Z,86.29
